sensor_id;sensor_type;location;lat;lon;timestamp;P1;durP1;ratioP1;P2;durP2;ratioP2
21593;SDS011;10959;51.328;7.322;2023-05-29T00:02:25;2.67;;;2.20;;
21593;SDS011;10959;51.328;7.322;2023-05-29T00:04:51;2.60;;;2.40;;
21593;SDS011;10959;51.328;7.322;2023-05-29T00:07:18;4.40;;;2.33;;
21593;SDS011;10959;51.328;7.322;2023-05-29T00:09:45;5.13;;;2.83;;
21593;SDS011;10959;51.328;7.322;2023-05-29T00:12:11;4.00;;;2.97;;
21593;SDS011;10959;51.328;7.322;2023-05-29T00:14:40;3.97;;;2.90;;
21593;SDS011;10959;51.328;7.322;2023-05-29T00:17:06;4.10;;;2.73;;
21593;SDS011;10959;51.328;7.322;2023-05-29T00:19:33;4.53;;;2.63;;
21593;SDS011;10959;51.328;7.322;2023-05-29T00:22:00;3.30;;;2.43;;
21593;SDS011;10959;51.328;7.322;2023-05-29T00:24:26;3.40;;;2.80;;
21593;SDS011;10959;51.328;7.322;2023-05-29T00:26:53;5.67;;;3.13;;
21593;SDS011;10959;51.328;7.322;2023-05-29T00:29:19;3.40;;;2.73;;
21593;SDS011;10959;51.328;7.322;2023-05-29T00:31:48;4.03;;;2.70;;
21593;SDS011;10959;51.328;7.322;2023-05-29T00:34:15;3.87;;;2.87;;
21593;SDS011;10959;51.328;7.322;2023-05-29T00:36:41;4.90;;;2.70;;
21593;SDS011;10959;51.328;7.322;2023-05-29T00:39:07;6.10;;;3.07;;
21593;SDS011;10959;51.328;7.322;2023-05-29T00:41:34;4.50;;;3.17;;
21593;SDS011;10959;51.328;7.322;2023-05-29T00:44:01;5.10;;;3.00;;
21593;SDS011;10959;51.328;7.322;2023-05-29T00:46:28;4.60;;;3.00;;
21593;SDS011;10959;51.328;7.322;2023-05-29T00:48:58;3.90;;;3.00;;
21593;SDS011;10959;51.328;7.322;2023-05-29T00:51:25;4.23;;;3.03;;
21593;SDS011;10959;51.328;7.322;2023-05-29T00:53:53;3.70;;;3.10;;
21593;SDS011;10959;51.328;7.322;2023-05-29T00:56:21;4.17;;;2.90;;
21593;SDS011;10959;51.328;7.322;2023-05-29T00:58:48;2.60;;;2.37;;
21593;SDS011;10959;51.328;7.322;2023-05-29T01:01:17;4.13;;;3.27;;
21593;SDS011;10959;51.328;7.322;2023-05-29T01:03:44;4.07;;;3.20;;
21593;SDS011;10959;51.328;7.322;2023-05-29T01:06:15;3.63;;;3.23;;
21593;SDS011;10959;51.328;7.322;2023-05-29T01:08:41;4.93;;;3.40;;
21593;SDS011;10959;51.328;7.322;2023-05-29T01:11:08;4.47;;;3.50;;
21593;SDS011;10959;51.328;7.322;2023-05-29T01:13:41;4.67;;;3.27;;
21593;SDS011;10959;51.328;7.322;2023-05-29T01:16:12;7.00;;;3.50;;
21593;SDS011;10959;51.328;7.322;2023-05-29T01:18:45;4.50;;;3.30;;
21593;SDS011;10959;51.328;7.322;2023-05-29T01:22:45;5.70;;;3.17;;
21593;SDS011;10959;51.328;7.322;2023-05-29T01:25:38;6.73;;;3.93;;
21593;SDS011;10959;51.328;7.322;2023-05-29T01:28:19;3.80;;;3.10;;
21593;SDS011;10959;51.328;7.322;2023-05-29T01:34:09;4.20;;;3.13;;
21593;SDS011;10959;51.328;7.322;2023-05-29T01:36:35;4.30;;;3.33;;
21593;SDS011;10959;51.328;7.322;2023-05-29T01:39:02;5.70;;;3.30;;
21593;SDS011;10959;51.328;7.322;2023-05-29T01:41:30;4.50;;;3.33;;
21593;SDS011;10959;51.328;7.322;2023-05-29T01:43:59;3.60;;;3.20;;
21593;SDS011;10959;51.328;7.322;2023-05-29T01:46:26;9.60;;;3.97;;
21593;SDS011;10959;51.328;7.322;2023-05-29T01:48:52;4.83;;;3.03;;
21593;SDS011;10959;51.328;7.322;2023-05-29T01:51:20;5.33;;;3.60;;
21593;SDS011;10959;51.328;7.322;2023-05-29T01:53:46;6.10;;;3.70;;
21593;SDS011;10959;51.328;7.322;2023-05-29T01:56:13;5.90;;;3.40;;
21593;SDS011;10959;51.328;7.322;2023-05-29T01:58:40;5.63;;;3.57;;
21593;SDS011;10959;51.328;7.322;2023-05-29T02:01:09;4.60;;;3.43;;
21593;SDS011;10959;51.328;7.322;2023-05-29T02:03:36;5.27;;;3.50;;
21593;SDS011;10959;51.328;7.322;2023-05-29T02:06:02;10.13;;;4.60;;
21593;SDS011;10959;51.328;7.322;2023-05-29T02:08:29;13.43;;;4.40;;
21593;SDS011;10959;51.328;7.322;2023-05-29T02:10:55;10.70;;;3.97;;
21593;SDS011;10959;51.328;7.322;2023-05-29T02:13:21;8.13;;;3.70;;
21593;SDS011;10959;51.328;7.322;2023-05-29T02:15:48;7.10;;;3.50;;
21593;SDS011;10959;51.328;7.322;2023-05-29T02:18:16;6.80;;;3.40;;
21593;SDS011;10959;51.328;7.322;2023-05-29T02:20:44;10.57;;;4.00;;
21593;SDS011;10959;51.328;7.322;2023-05-29T02:23:10;10.07;;;3.90;;
21593;SDS011;10959;51.328;7.322;2023-05-29T02:25:37;9.83;;;3.97;;
21593;SDS011;10959;51.328;7.322;2023-05-29T02:28:03;9.27;;;3.60;;
21593;SDS011;10959;51.328;7.322;2023-05-29T02:30:30;10.77;;;4.07;;
21593;SDS011;10959;51.328;7.322;2023-05-29T02:32:56;12.13;;;4.30;;
21593;SDS011;10959;51.328;7.322;2023-05-29T02:35:24;7.80;;;3.93;;
21593;SDS011;10959;51.328;7.322;2023-05-29T02:37:51;9.00;;;3.63;;
21593;SDS011;10959;51.328;7.322;2023-05-29T02:40:18;8.13;;;3.50;;
21593;SDS011;10959;51.328;7.322;2023-05-29T02:42:45;10.30;;;3.60;;
21593;SDS011;10959;51.328;7.322;2023-05-29T02:45:12;10.40;;;3.57;;
21593;SDS011;10959;51.328;7.322;2023-05-29T02:47:39;9.40;;;3.70;;
21593;SDS011;10959;51.328;7.322;2023-05-29T02:50:05;9.73;;;3.20;;
21593;SDS011;10959;51.328;7.322;2023-05-29T02:52:34;8.63;;;3.03;;
21593;SDS011;10959;51.328;7.322;2023-05-29T02:55:01;13.60;;;4.03;;
21593;SDS011;10959;51.328;7.322;2023-05-29T02:57:29;10.50;;;3.53;;
21593;SDS011;10959;51.328;7.322;2023-05-29T02:59:55;11.83;;;3.40;;
21593;SDS011;10959;51.328;7.322;2023-05-29T03:02:21;8.87;;;3.53;;
21593;SDS011;10959;51.328;7.322;2023-05-29T03:04:48;9.50;;;3.37;;
21593;SDS011;10959;51.328;7.322;2023-05-29T03:07:15;9.77;;;3.33;;
21593;SDS011;10959;51.328;7.322;2023-05-29T03:09:43;11.93;;;3.77;;
21593;SDS011;10959;51.328;7.322;2023-05-29T03:12:09;11.77;;;3.50;;
21593;SDS011;10959;51.328;7.322;2023-05-29T03:14:36;14.03;;;3.90;;
21593;SDS011;10959;51.328;7.322;2023-05-29T03:17:03;13.07;;;4.10;;
21593;SDS011;10959;51.328;7.322;2023-05-29T03:19:30;6.33;;;3.50;;
21593;SDS011;10959;51.328;7.322;2023-05-29T03:21:56;11.97;;;4.17;;
21593;SDS011;10959;51.328;7.322;2023-05-29T03:24:23;8.93;;;3.43;;
21593;SDS011;10959;51.328;7.322;2023-05-29T03:26:51;14.27;;;4.10;;
21593;SDS011;10959;51.328;7.322;2023-05-29T03:29:17;9.57;;;3.40;;
21593;SDS011;10959;51.328;7.322;2023-05-29T03:31:44;10.77;;;3.73;;
21593;SDS011;10959;51.328;7.322;2023-05-29T03:34:10;11.00;;;3.93;;
21593;SDS011;10959;51.328;7.322;2023-05-29T03:36:36;11.27;;;3.83;;
21593;SDS011;10959;51.328;7.322;2023-05-29T03:39:03;13.07;;;4.00;;
21593;SDS011;10959;51.328;7.322;2023-05-29T03:41:29;9.57;;;3.60;;
21593;SDS011;10959;51.328;7.322;2023-05-29T03:43:57;7.87;;;3.43;;
21593;SDS011;10959;51.328;7.322;2023-05-29T03:46:24;8.67;;;4.00;;
21593;SDS011;10959;51.328;7.322;2023-05-29T03:48:52;10.27;;;3.97;;
21593;SDS011;10959;51.328;7.322;2023-05-29T03:51:18;12.53;;;3.67;;
21593;SDS011;10959;51.328;7.322;2023-05-29T03:53:45;13.10;;;4.10;;
21593;SDS011;10959;51.328;7.322;2023-05-29T03:56:11;8.73;;;2.97;;
21593;SDS011;10959;51.328;7.322;2023-05-29T03:58:37;8.87;;;3.60;;
21593;SDS011;10959;51.328;7.322;2023-05-29T04:01:05;11.93;;;4.03;;
21593;SDS011;10959;51.328;7.322;2023-05-29T04:03:32;12.63;;;4.07;;
21593;SDS011;10959;51.328;7.322;2023-05-29T04:05:58;10.77;;;3.10;;
21593;SDS011;10959;51.328;7.322;2023-05-29T04:08:25;11.53;;;3.57;;
21593;SDS011;10959;51.328;7.322;2023-05-29T04:10:51;12.33;;;3.87;;
21593;SDS011;10959;51.328;7.322;2023-05-29T04:13:18;10.00;;;3.67;;
21593;SDS011;10959;51.328;7.322;2023-05-29T04:15:45;10.87;;;3.60;;
21593;SDS011;10959;51.328;7.322;2023-05-29T04:18:13;13.50;;;3.70;;
21593;SDS011;10959;51.328;7.322;2023-05-29T04:20:39;11.13;;;4.20;;
21593;SDS011;10959;51.328;7.322;2023-05-29T04:23:06;8.63;;;3.70;;
21593;SDS011;10959;51.328;7.322;2023-05-29T04:25:32;12.87;;;4.37;;
21593;SDS011;10959;51.328;7.322;2023-05-29T04:27:59;12.63;;;4.60;;
21593;SDS011;10959;51.328;7.322;2023-05-29T04:30:27;13.27;;;3.50;;
21593;SDS011;10959;51.328;7.322;2023-05-29T04:32:54;11.47;;;4.10;;
21593;SDS011;10959;51.328;7.322;2023-05-29T04:35:22;12.73;;;3.60;;
21593;SDS011;10959;51.328;7.322;2023-05-29T04:37:48;10.47;;;4.13;;
21593;SDS011;10959;51.328;7.322;2023-05-29T04:40:15;12.00;;;3.73;;
21593;SDS011;10959;51.328;7.322;2023-05-29T04:42:42;11.47;;;4.23;;
21593;SDS011;10959;51.328;7.322;2023-05-29T04:45:10;10.50;;;3.77;;
21593;SDS011;10959;51.328;7.322;2023-05-29T04:47:37;8.80;;;3.50;;
21593;SDS011;10959;51.328;7.322;2023-05-29T04:50:08;9.10;;;3.40;;
21593;SDS011;10959;51.328;7.322;2023-05-29T04:52:37;7.30;;;3.20;;
21593;SDS011;10959;51.328;7.322;2023-05-29T04:55:04;9.30;;;4.17;;
21593;SDS011;10959;51.328;7.322;2023-05-29T04:57:31;10.77;;;4.17;;
21593;SDS011;10959;51.328;7.322;2023-05-29T04:59:57;11.83;;;4.10;;
21593;SDS011;10959;51.328;7.322;2023-05-29T05:02:23;15.90;;;4.07;;
21593;SDS011;10959;51.328;7.322;2023-05-29T05:04:50;8.60;;;3.13;;
21593;SDS011;10959;51.328;7.322;2023-05-29T05:07:16;12.73;;;3.93;;
21593;SDS011;10959;51.328;7.322;2023-05-29T05:09:44;11.80;;;3.80;;
21593;SDS011;10959;51.328;7.322;2023-05-29T05:12:11;11.63;;;3.70;;
21593;SDS011;10959;51.328;7.322;2023-05-29T05:14:37;9.60;;;3.90;;
21593;SDS011;10959;51.328;7.322;2023-05-29T05:17:04;9.77;;;3.77;;
21593;SDS011;10959;51.328;7.322;2023-05-29T05:19:30;13.07;;;4.10;;
21593;SDS011;10959;51.328;7.322;2023-05-29T05:21:57;11.93;;;3.90;;
21593;SDS011;10959;51.328;7.322;2023-05-29T05:24:23;10.27;;;3.87;;
21593;SDS011;10959;51.328;7.322;2023-05-29T05:26:51;9.57;;;3.37;;
21593;SDS011;10959;51.328;7.322;2023-05-29T05:29:17;11.90;;;3.90;;
21593;SDS011;10959;51.328;7.322;2023-05-29T05:31:44;11.97;;;3.20;;
21593;SDS011;10959;51.328;7.322;2023-05-29T05:34:11;11.57;;;3.63;;
21593;SDS011;10959;51.328;7.322;2023-05-29T05:36:38;9.57;;;3.50;;
21593;SDS011;10959;51.328;7.322;2023-05-29T05:39:04;11.93;;;3.70;;
21593;SDS011;10959;51.328;7.322;2023-05-29T05:41:31;11.40;;;3.87;;
21593;SDS011;10959;51.328;7.322;2023-05-29T05:43:59;10.00;;;3.40;;
21593;SDS011;10959;51.328;7.322;2023-05-29T05:46:25;12.37;;;4.10;;
21593;SDS011;10959;51.328;7.322;2023-05-29T05:48:51;9.63;;;3.50;;
21593;SDS011;10959;51.328;7.322;2023-05-29T05:51:18;11.23;;;3.47;;
21593;SDS011;10959;51.328;7.322;2023-05-29T05:53:44;12.63;;;3.80;;
21593;SDS011;10959;51.328;7.322;2023-05-29T05:56:11;10.40;;;3.63;;
21593;SDS011;10959;51.328;7.322;2023-05-29T05:58:37;10.43;;;3.67;;
21593;SDS011;10959;51.328;7.322;2023-05-29T06:01:05;12.70;;;3.87;;
21593;SDS011;10959;51.328;7.322;2023-05-29T06:03:33;11.17;;;3.53;;
21593;SDS011;10959;51.328;7.322;2023-05-29T06:05:59;7.57;;;3.30;;
21593;SDS011;10959;51.328;7.322;2023-05-29T06:08:26;9.10;;;3.33;;
21593;SDS011;10959;51.328;7.322;2023-05-29T06:10:53;10.60;;;4.33;;
21593;SDS011;10959;51.328;7.322;2023-05-29T06:13:19;11.67;;;3.73;;
21593;SDS011;10959;51.328;7.322;2023-05-29T06:15:46;12.07;;;4.20;;
21593;SDS011;10959;51.328;7.322;2023-05-29T06:18:13;11.77;;;3.70;;
21593;SDS011;10959;51.328;7.322;2023-05-29T06:20:40;9.67;;;3.80;;
21593;SDS011;10959;51.328;7.322;2023-05-29T06:23:07;10.27;;;3.47;;
21593;SDS011;10959;51.328;7.322;2023-05-29T06:25:33;11.23;;;4.10;;
21593;SDS011;10959;51.328;7.322;2023-05-29T06:28:00;6.47;;;3.00;;
21593;SDS011;10959;51.328;7.322;2023-05-29T06:30:27;9.97;;;3.87;;
21593;SDS011;10959;51.328;7.322;2023-05-29T06:32:53;9.63;;;3.20;;
21593;SDS011;10959;51.328;7.322;2023-05-29T06:35:21;10.93;;;3.30;;
21593;SDS011;10959;51.328;7.322;2023-05-29T06:37:47;11.63;;;3.67;;
21593;SDS011;10959;51.328;7.322;2023-05-29T06:40:14;9.57;;;3.77;;
21593;SDS011;10959;51.328;7.322;2023-05-29T06:42:41;6.97;;;2.80;;
21593;SDS011;10959;51.328;7.322;2023-05-29T06:45:10;7.57;;;3.20;;
21593;SDS011;10959;51.328;7.322;2023-05-29T06:47:38;10.67;;;3.27;;
21593;SDS011;10959;51.328;7.322;2023-05-29T06:50:05;12.30;;;3.70;;
21593;SDS011;10959;51.328;7.322;2023-05-29T06:52:33;9.50;;;2.77;;
21593;SDS011;10959;51.328;7.322;2023-05-29T06:54:59;14.30;;;4.07;;
21593;SDS011;10959;51.328;7.322;2023-05-29T06:57:26;8.70;;;3.40;;
21593;SDS011;10959;51.328;7.322;2023-05-29T06:59:52;8.73;;;3.27;;
21593;SDS011;10959;51.328;7.322;2023-05-29T07:02:19;9.33;;;3.67;;
21593;SDS011;10959;51.328;7.322;2023-05-29T07:04:45;12.43;;;3.57;;
21593;SDS011;10959;51.328;7.322;2023-05-29T07:07:12;11.97;;;3.83;;
21593;SDS011;10959;51.328;7.322;2023-05-29T07:09:40;10.47;;;3.43;;
21593;SDS011;10959;51.328;7.322;2023-05-29T07:12:06;11.30;;;3.80;;
21593;SDS011;10959;51.328;7.322;2023-05-29T07:14:32;12.23;;;3.70;;
21593;SDS011;10959;51.328;7.322;2023-05-29T07:16:59;10.53;;;3.53;;
21593;SDS011;10959;51.328;7.322;2023-05-29T07:19:25;11.03;;;3.73;;
21593;SDS011;10959;51.328;7.322;2023-05-29T07:21:52;9.50;;;3.07;;
21593;SDS011;10959;51.328;7.322;2023-05-29T07:24:19;9.40;;;3.47;;
21593;SDS011;10959;51.328;7.322;2023-05-29T07:26:47;9.90;;;3.63;;
21593;SDS011;10959;51.328;7.322;2023-05-29T07:29:13;10.93;;;3.33;;
21593;SDS011;10959;51.328;7.322;2023-05-29T07:31:41;10.93;;;3.50;;
21593;SDS011;10959;51.328;7.322;2023-05-29T07:34:08;9.37;;;3.10;;
21593;SDS011;10959;51.328;7.322;2023-05-29T07:36:35;8.60;;;3.03;;
21593;SDS011;10959;51.328;7.322;2023-05-29T07:39:02;13.37;;;4.07;;
21593;SDS011;10959;51.328;7.322;2023-05-29T07:41:30;12.73;;;3.50;;
21593;SDS011;10959;51.328;7.322;2023-05-29T07:43:58;9.87;;;3.67;;
21593;SDS011;10959;51.328;7.322;2023-05-29T07:46:24;10.77;;;3.47;;
21593;SDS011;10959;51.328;7.322;2023-05-29T07:48:51;8.80;;;3.63;;
21593;SDS011;10959;51.328;7.322;2023-05-29T07:51:17;12.80;;;3.77;;
21593;SDS011;10959;51.328;7.322;2023-05-29T07:53:44;9.90;;;3.67;;
21593;SDS011;10959;51.328;7.322;2023-05-29T07:56:11;10.57;;;4.13;;
21593;SDS011;10959;51.328;7.322;2023-05-29T07:58:38;11.20;;;3.43;;
21593;SDS011;10959;51.328;7.322;2023-05-29T08:01:07;7.50;;;3.30;;
21593;SDS011;10959;51.328;7.322;2023-05-29T08:03:34;8.80;;;3.97;;
21593;SDS011;10959;51.328;7.322;2023-05-29T08:06:00;8.07;;;3.77;;
21593;SDS011;10959;51.328;7.322;2023-05-29T08:08:26;10.53;;;3.30;;
21593;SDS011;10959;51.328;7.322;2023-05-29T08:10:53;7.97;;;3.50;;
21593;SDS011;10959;51.328;7.322;2023-05-29T08:13:19;10.00;;;3.40;;
21593;SDS011;10959;51.328;7.322;2023-05-29T08:15:46;9.80;;;3.60;;
21593;SDS011;10959;51.328;7.322;2023-05-29T08:18:14;8.90;;;3.40;;
21593;SDS011;10959;51.328;7.322;2023-05-29T08:20:40;12.10;;;3.30;;
21593;SDS011;10959;51.328;7.322;2023-05-29T08:23:07;10.03;;;4.00;;
21593;SDS011;10959;51.328;7.322;2023-05-29T08:25:34;10.20;;;3.90;;
21593;SDS011;10959;51.328;7.322;2023-05-29T08:28:00;8.33;;;3.03;;
21593;SDS011;10959;51.328;7.322;2023-05-29T08:30:27;9.00;;;3.67;;
21593;SDS011;10959;51.328;7.322;2023-05-29T08:32:53;9.80;;;3.53;;
21593;SDS011;10959;51.328;7.322;2023-05-29T08:35:21;9.07;;;4.17;;
21593;SDS011;10959;51.328;7.322;2023-05-29T08:37:47;10.27;;;3.83;;
21593;SDS011;10959;51.328;7.322;2023-05-29T08:40:14;11.77;;;4.30;;
21593;SDS011;10959;51.328;7.322;2023-05-29T08:42:43;8.93;;;3.67;;
21593;SDS011;10959;51.328;7.322;2023-05-29T08:45:13;10.30;;;3.90;;
21593;SDS011;10959;51.328;7.322;2023-05-29T08:47:40;12.03;;;4.57;;
21593;SDS011;10959;51.328;7.322;2023-05-29T08:50:07;9.20;;;3.20;;
21593;SDS011;10959;51.328;7.322;2023-05-29T08:52:36;8.07;;;3.27;;
21593;SDS011;10959;51.328;7.322;2023-05-29T08:55:04;9.00;;;4.00;;
21593;SDS011;10959;51.328;7.322;2023-05-29T08:57:31;9.47;;;3.80;;
21593;SDS011;10959;51.328;7.322;2023-05-29T08:59:58;8.80;;;3.70;;
21593;SDS011;10959;51.328;7.322;2023-05-29T09:02:26;9.13;;;3.50;;
21593;SDS011;10959;51.328;7.322;2023-05-29T09:04:53;7.77;;;3.50;;
21593;SDS011;10959;51.328;7.322;2023-05-29T09:07:22;10.20;;;3.63;;
21593;SDS011;10959;51.328;7.322;2023-05-29T09:09:52;7.97;;;3.17;;
21593;SDS011;10959;51.328;7.322;2023-05-29T09:12:18;8.30;;;3.63;;
21593;SDS011;10959;51.328;7.322;2023-05-29T09:14:45;7.27;;;3.40;;
21593;SDS011;10959;51.328;7.322;2023-05-29T09:17:12;9.43;;;3.57;;
21593;SDS011;10959;51.328;7.322;2023-05-29T09:19:40;10.63;;;3.93;;
21593;SDS011;10959;51.328;7.322;2023-05-29T09:22:07;9.37;;;3.13;;
21593;SDS011;10959;51.328;7.322;2023-05-29T09:24:35;13.37;;;4.47;;
21593;SDS011;10959;51.328;7.322;2023-05-29T09:27:05;9.80;;;4.23;;
21593;SDS011;10959;51.328;7.322;2023-05-29T09:29:32;9.93;;;4.20;;
21593;SDS011;10959;51.328;7.322;2023-05-29T09:31:59;12.70;;;4.40;;
21593;SDS011;10959;51.328;7.322;2023-05-29T09:34:26;9.70;;;4.17;;
21593;SDS011;10959;51.328;7.322;2023-05-29T09:37:00;10.30;;;3.57;;
21593;SDS011;10959;51.328;7.322;2023-05-29T09:39:33;10.00;;;3.77;;
21593;SDS011;10959;51.328;7.322;2023-05-29T09:41:59;7.07;;;3.40;;
21593;SDS011;10959;51.328;7.322;2023-05-29T09:44:27;8.20;;;3.77;;
21593;SDS011;10959;51.328;7.322;2023-05-29T09:46:57;10.10;;;3.70;;
21593;SDS011;10959;51.328;7.322;2023-05-29T09:49:24;9.00;;;4.03;;
21593;SDS011;10959;51.328;7.322;2023-05-29T09:51:53;9.27;;;4.00;;
21593;SDS011;10959;51.328;7.322;2023-05-29T09:54:19;8.50;;;4.23;;
21593;SDS011;10959;51.328;7.322;2023-05-29T09:56:46;10.60;;;4.60;;
21593;SDS011;10959;51.328;7.322;2023-05-29T09:59:14;9.67;;;4.50;;
21593;SDS011;10959;51.328;7.322;2023-05-29T10:01:44;10.73;;;4.50;;
21593;SDS011;10959;51.328;7.322;2023-05-29T10:04:11;9.18;;;3.83;;
21593;SDS011;10959;51.328;7.322;2023-05-29T10:06:39;8.47;;;3.60;;
21593;SDS011;10959;51.328;7.322;2023-05-29T10:09:12;5.77;;;3.40;;
21593;SDS011;10959;51.328;7.322;2023-05-29T10:11:43;11.53;;;3.93;;
21593;SDS011;10959;51.328;7.322;2023-05-29T10:14:14;9.57;;;4.17;;
21593;SDS011;10959;51.328;7.322;2023-05-29T10:16:46;10.10;;;3.70;;
21593;SDS011;10959;51.328;7.322;2023-05-29T10:19:15;7.78;;;2.95;;
21593;SDS011;10959;51.328;7.322;2023-05-29T10:21:47;8.82;;;3.30;;
21593;SDS011;10959;51.328;7.322;2023-05-29T10:24:15;8.48;;;3.95;;
21593;SDS011;10959;51.328;7.322;2023-05-29T10:26:43;9.13;;;3.80;;
21593;SDS011;10959;51.328;7.322;2023-05-29T10:29:15;7.32;;;2.55;;
21593;SDS011;10959;51.328;7.322;2023-05-29T10:31:48;9.40;;;3.17;;
21593;SDS011;10959;51.328;7.322;2023-05-29T10:34:29;10.88;;;3.08;;
21593;SDS011;10959;51.328;7.322;2023-05-29T10:37:04;8.50;;;3.38;;
21593;SDS011;10959;51.328;7.322;2023-05-29T10:39:34;10.95;;;3.28;;
21593;SDS011;10959;51.328;7.322;2023-05-29T10:42:01;10.23;;;3.17;;
21593;SDS011;10959;51.328;7.322;2023-05-29T10:44:38;8.30;;;3.17;;
21593;SDS011;10959;51.328;7.322;2023-05-29T10:47:10;8.35;;;3.17;;
21593;SDS011;10959;51.328;7.322;2023-05-29T10:49:38;8.23;;;3.10;;
21593;SDS011;10959;51.328;7.322;2023-05-29T10:52:06;9.95;;;3.20;;
21593;SDS011;10959;51.328;7.322;2023-05-29T10:54:40;6.35;;;3.10;;
21593;SDS011;10959;51.328;7.322;2023-05-29T10:57:16;8.98;;;2.80;;
21593;SDS011;10959;51.328;7.322;2023-05-29T10:59:44;9.35;;;3.17;;
21593;SDS011;10959;51.328;7.322;2023-05-29T11:02:12;9.57;;;2.47;;
21593;SDS011;10959;51.328;7.322;2023-05-29T11:04:43;8.55;;;3.10;;
21593;SDS011;10959;51.328;7.322;2023-05-29T11:10:10;6.07;;;3.20;;
21593;SDS011;10959;51.328;7.322;2023-05-29T11:12:55;9.98;;;3.55;;
21593;SDS011;10959;51.328;7.322;2023-05-29T11:15:23;10.32;;;3.50;;
21593;SDS011;10959;51.328;7.322;2023-05-29T11:17:51;6.80;;;3.22;;
21593;SDS011;10959;51.328;7.322;2023-05-29T11:20:27;8.38;;;3.25;;
21593;SDS011;10959;51.328;7.322;2023-05-29T11:23:00;13.68;;;3.03;;
21593;SDS011;10959;51.328;7.322;2023-05-29T11:25:29;6.90;;;3.17;;
21593;SDS011;10959;51.328;7.322;2023-05-29T11:27:59;11.52;;;3.10;;
21593;SDS011;10959;51.328;7.322;2023-05-29T11:30:25;9.38;;;2.90;;
21593;SDS011;10959;51.328;7.322;2023-05-29T11:32:53;8.27;;;2.80;;
21593;SDS011;10959;51.328;7.322;2023-05-29T11:35:21;6.13;;;2.78;;
21593;SDS011;10959;51.328;7.322;2023-05-29T11:37:48;10.48;;;3.17;;
21593;SDS011;10959;51.328;7.322;2023-05-29T11:40:15;7.45;;;2.90;;
21593;SDS011;10959;51.328;7.322;2023-05-29T11:42:43;8.77;;;3.17;;
21593;SDS011;10959;51.328;7.322;2023-05-29T11:45:11;5.38;;;2.80;;
21593;SDS011;10959;51.328;7.322;2023-05-29T11:47:52;6.80;;;3.05;;
21593;SDS011;10959;51.328;7.322;2023-05-29T11:50:19;8.43;;;2.85;;
21593;SDS011;10959;51.328;7.322;2023-05-29T11:52:47;6.07;;;2.40;;
21593;SDS011;10959;51.328;7.322;2023-05-29T11:55:13;6.93;;;2.80;;
21593;SDS011;10959;51.328;7.322;2023-05-29T11:57:40;8.98;;;3.38;;
21593;SDS011;10959;51.328;7.322;2023-05-29T12:00:07;10.55;;;2.85;;
21593;SDS011;10959;51.328;7.322;2023-05-29T12:02:35;8.27;;;3.60;;
21593;SDS011;10959;51.328;7.322;2023-05-29T12:05:03;7.22;;;2.63;;
21593;SDS011;10959;51.328;7.322;2023-05-29T12:07:32;7.30;;;2.63;;
21593;SDS011;10959;51.328;7.322;2023-05-29T12:10:08;8.95;;;3.30;;
21593;SDS011;10959;51.328;7.322;2023-05-29T12:12:35;9.38;;;2.50;;
21593;SDS011;10959;51.328;7.322;2023-05-29T12:15:02;7.45;;;3.35;;
21593;SDS011;10959;51.328;7.322;2023-05-29T12:17:30;10.45;;;3.00;;
21593;SDS011;10959;51.328;7.322;2023-05-29T12:19:57;6.80;;;2.60;;
21593;SDS011;10959;51.328;7.322;2023-05-29T12:22:31;6.43;;;2.80;;
21593;SDS011;10959;51.328;7.322;2023-05-29T12:25:02;4.28;;;2.25;;
21593;SDS011;10959;51.328;7.322;2023-05-29T12:27:31;10.57;;;2.90;;
21593;SDS011;10959;51.328;7.322;2023-05-29T12:30:02;10.93;;;3.42;;
21593;SDS011;10959;51.328;7.322;2023-05-29T12:32:34;7.65;;;3.08;;
21593;SDS011;10959;51.328;7.322;2023-05-29T12:35:01;4.85;;;2.58;;
21593;SDS011;10959;51.328;7.322;2023-05-29T12:37:29;9.07;;;2.70;;
21593;SDS011;10959;51.328;7.322;2023-05-29T12:40:10;7.95;;;2.53;;
21593;SDS011;10959;51.328;7.322;2023-05-29T12:42:40;10.82;;;3.13;;
21593;SDS011;10959;51.328;7.322;2023-05-29T12:45:07;7.38;;;2.97;;
21593;SDS011;10959;51.328;7.322;2023-05-29T12:47:34;4.85;;;2.42;;
21593;SDS011;10959;51.328;7.322;2023-05-29T12:50:04;11.88;;;3.42;;
21593;SDS011;10959;51.328;7.322;2023-05-29T12:52:48;9.88;;;2.85;;
21593;SDS011;10959;51.328;7.322;2023-05-29T12:55:19;5.38;;;2.63;;
21593;SDS011;10959;51.328;7.322;2023-05-29T12:57:45;8.60;;;2.70;;
21593;SDS011;10959;51.328;7.322;2023-05-29T13:00:12;5.85;;;2.72;;
21593;SDS011;10959;51.328;7.322;2023-05-29T13:02:39;8.75;;;2.92;;
21593;SDS011;10959;51.328;7.322;2023-05-29T13:05:06;5.95;;;2.75;;
21593;SDS011;10959;51.328;7.322;2023-05-29T13:07:33;12.60;;;3.03;;
21593;SDS011;10959;51.328;7.322;2023-05-29T13:10:01;7.07;;;2.50;;
21593;SDS011;10959;51.328;7.322;2023-05-29T13:12:28;7.05;;;2.92;;
21593;SDS011;10959;51.328;7.322;2023-05-29T13:14:54;6.40;;;2.80;;
21593;SDS011;10959;51.328;7.322;2023-05-29T13:17:21;8.48;;;2.80;;
21593;SDS011;10959;51.328;7.322;2023-05-29T13:19:48;6.75;;;2.55;;
21593;SDS011;10959;51.328;7.322;2023-05-29T13:22:14;7.20;;;2.70;;
21593;SDS011;10959;51.328;7.322;2023-05-29T13:24:41;6.75;;;2.90;;
21593;SDS011;10959;51.328;7.322;2023-05-29T13:27:09;6.68;;;2.80;;
21593;SDS011;10959;51.328;7.322;2023-05-29T13:29:38;6.82;;;3.00;;
21593;SDS011;10959;51.328;7.322;2023-05-29T13:32:05;7.50;;;2.72;;
21593;SDS011;10959;51.328;7.322;2023-05-29T13:34:32;6.53;;;3.17;;
21593;SDS011;10959;51.328;7.322;2023-05-29T13:36:58;6.63;;;2.90;;
21593;SDS011;10959;51.328;7.322;2023-05-29T13:39:27;6.63;;;3.20;;
21593;SDS011;10959;51.328;7.322;2023-05-29T13:41:53;6.18;;;3.05;;
21593;SDS011;10959;51.328;7.322;2023-05-29T13:44:21;6.93;;;2.75;;
21593;SDS011;10959;51.328;7.322;2023-05-29T13:46:48;7.93;;;2.63;;
21593;SDS011;10959;51.328;7.322;2023-05-29T13:49:15;7.55;;;3.00;;
21593;SDS011;10959;51.328;7.322;2023-05-29T13:51:42;5.82;;;2.75;;
21593;SDS011;10959;51.328;7.322;2023-05-29T13:54:10;5.68;;;2.85;;
21593;SDS011;10959;51.328;7.322;2023-05-29T13:56:36;6.20;;;3.92;;
21593;SDS011;10959;51.328;7.322;2023-05-29T13:59:03;4.95;;;2.50;;
21593;SDS011;10959;51.328;7.322;2023-05-29T14:01:32;5.72;;;2.47;;
21593;SDS011;10959;51.328;7.322;2023-05-29T14:03:59;6.97;;;2.55;;
21593;SDS011;10959;51.328;7.322;2023-05-29T14:06:25;5.90;;;2.28;;
21593;SDS011;10959;51.328;7.322;2023-05-29T14:08:52;6.22;;;2.78;;
21593;SDS011;10959;51.328;7.322;2023-05-29T14:11:20;6.10;;;2.65;;
21593;SDS011;10959;51.328;7.322;2023-05-29T14:13:46;7.47;;;3.03;;
21593;SDS011;10959;51.328;7.322;2023-05-29T14:16:13;8.70;;;2.70;;
21593;SDS011;10959;51.328;7.322;2023-05-29T14:18:41;5.00;;;2.50;;
21593;SDS011;10959;51.328;7.322;2023-05-29T14:21:08;4.97;;;2.45;;
21593;SDS011;10959;51.328;7.322;2023-05-29T14:23:35;5.10;;;2.70;;
21593;SDS011;10959;51.328;7.322;2023-05-29T14:26:01;5.10;;;2.88;;
21593;SDS011;10959;51.328;7.322;2023-05-29T14:28:28;7.32;;;2.80;;
21593;SDS011;10959;51.328;7.322;2023-05-29T14:30:54;8.02;;;3.03;;
21593;SDS011;10959;51.328;7.322;2023-05-29T14:33:21;5.63;;;2.35;;
21593;SDS011;10959;51.328;7.322;2023-05-29T14:35:48;5.28;;;2.50;;
21593;SDS011;10959;51.328;7.322;2023-05-29T14:38:15;8.32;;;2.90;;
21593;SDS011;10959;51.328;7.322;2023-05-29T14:40:41;7.55;;;3.05;;
21593;SDS011;10959;51.328;7.322;2023-05-29T14:43:08;8.43;;;2.40;;
21593;SDS011;10959;51.328;7.322;2023-05-29T14:45:34;6.35;;;2.90;;
21593;SDS011;10959;51.328;7.322;2023-05-29T14:48:01;6.78;;;2.95;;
21593;SDS011;10959;51.328;7.322;2023-05-29T14:50:27;7.75;;;2.88;;
21593;SDS011;10959;51.328;7.322;2023-05-29T14:52:55;7.25;;;3.10;;
21593;SDS011;10959;51.328;7.322;2023-05-29T14:55:22;11.73;;;5.28;;